sensor_id;sensor_type;location;lat;lon;timestamp;pressure;altitude;pressure_sealevel;temperature;humidity
23223;BME280;11780;13.904;100.620;2023-02-17T00:00:37;101384.81;;;28.81;59.45
23223;BME280;11780;13.904;100.620;2023-02-17T00:03:09;101391.13;;;28.82;59.33
23223;BME280;11780;13.904;100.620;2023-02-17T00:06:06;101384.28;;;28.79;59.46
23223;BME280;11780;13.904;100.620;2023-02-17T00:08:36;101389.78;;;28.79;59.44
23223;BME280;11780;13.904;100.620;2023-02-17T00:11:06;101394.19;;;28.80;59.60
23223;BME280;11780;13.904;100.620;2023-02-17T00:13:36;101399.69;;;28.80;59.63
23223;BME280;11780;13.904;100.620;2023-02-17T00:16:08;101412.66;;;28.80;59.98
23223;BME280;11780;13.904;100.620;2023-02-17T00:18:39;101410.41;;;28.82;59.58
23223;BME280;11780;13.904;100.620;2023-02-17T00:21:20;101414.53;;;28.84;59.55
23223;BME280;11780;13.904;100.620;2023-02-17T00:23:53;101420.63;;;28.81;59.53
23223;BME280;11780;13.904;100.620;2023-02-17T00:26:25;101425.81;;;28.83;59.40
23223;BME280;11780;13.904;100.620;2023-02-17T00:28:57;101436.03;;;28.82;59.39
23223;BME280;11780;13.904;100.620;2023-02-17T00:31:27;101435.78;;;28.79;59.49
23223;BME280;11780;13.904;100.620;2023-02-17T00:34:13;101436.25;;;28.86;59.36
23223;BME280;11780;13.904;100.620;2023-02-17T00:36:45;101444.28;;;28.82;59.27
23223;BME280;11780;13.904;100.620;2023-02-17T00:39:16;101451.72;;;28.82;59.53
23223;BME280;11780;13.904;100.620;2023-02-17T00:41:48;101442.34;;;28.83;59.62
23223;BME280;11780;13.904;100.620;2023-02-17T00:44:22;101450.59;;;28.83;59.89
23223;BME280;11780;13.904;100.620;2023-02-17T00:46:53;101453.66;;;28.81;59.84
23223;BME280;11780;13.904;100.620;2023-02-17T00:49:26;101458.06;;;28.82;59.97
23223;BME280;11780;13.904;100.620;2023-02-17T00:52:00;101464.66;;;28.81;60.22
23223;BME280;11780;13.904;100.620;2023-02-17T00:54:32;101466.00;;;28.84;60.15
23223;BME280;11780;13.904;100.620;2023-02-17T00:57:03;101467.13;;;28.83;60.27
23223;BME280;11780;13.904;100.620;2023-02-17T00:59:33;101471.25;;;28.85;60.45
23223;BME280;11780;13.904;100.620;2023-02-17T01:02:03;101469.66;;;28.79;60.57
23223;BME280;11780;13.904;100.620;2023-02-17T01:04:35;101478.44;;;28.81;60.96
23223;BME280;11780;13.904;100.620;2023-02-17T01:07:05;101483.66;;;28.83;60.60
23223;BME280;11780;13.904;100.620;2023-02-17T01:09:35;101481.72;;;28.83;60.82
23223;BME280;11780;13.904;100.620;2023-02-17T01:12:05;101488.56;;;28.86;60.73
23223;BME280;11780;13.904;100.620;2023-02-17T01:14:35;101496.06;;;28.80;61.04
23223;BME280;11780;13.904;100.620;2023-02-17T01:17:06;101494.38;;;28.84;61.21
23223;BME280;11780;13.904;100.620;2023-02-17T01:19:36;101507.03;;;28.85;61.01
23223;BME280;11780;13.904;100.620;2023-02-17T01:22:06;101506.44;;;28.89;61.25
23223;BME280;11780;13.904;100.620;2023-02-17T01:24:37;101515.22;;;28.91;60.93
23223;BME280;11780;13.904;100.620;2023-02-17T01:27:07;101517.44;;;28.89;61.05
23223;BME280;11780;13.904;100.620;2023-02-17T01:29:38;101510.84;;;28.90;60.86
23223;BME280;11780;13.904;100.620;2023-02-17T01:32:08;101511.47;;;28.81;60.88
23223;BME280;11780;13.904;100.620;2023-02-17T01:34:40;101521.16;;;28.79;60.59
23223;BME280;11780;13.904;100.620;2023-02-17T01:37:10;101532.41;;;28.82;60.54
23223;BME280;11780;13.904;100.620;2023-02-17T01:39:40;101528.00;;;28.81;60.39
23223;BME280;11780;13.904;100.620;2023-02-17T01:42:19;101531.28;;;28.83;60.28
23223;BME280;11780;13.904;100.620;2023-02-17T01:45:33;101530.75;;;28.81;60.12
23223;BME280;11780;13.904;100.620;2023-02-17T01:48:29;101539.03;;;28.81;59.94
23223;BME280;11780;13.904;100.620;2023-02-17T01:51:08;101537.59;;;28.84;59.60
23223;BME280;11780;13.904;100.620;2023-02-17T01:56:12;101542.88;;;28.80;59.50
23223;BME280;11780;13.904;100.620;2023-02-17T01:58:50;101540.13;;;28.80;59.45
23223;BME280;11780;13.904;100.620;2023-02-17T02:01:22;101550.59;;;28.78;59.49
23223;BME280;11780;13.904;100.620;2023-02-17T02:03:53;101545.09;;;28.78;59.32
23223;BME280;11780;13.904;100.620;2023-02-17T02:06:26;101548.69;;;28.79;59.36
23223;BME280;11780;13.904;100.620;2023-02-17T02:09:20;101552.25;;;28.79;59.47
23223;BME280;11780;13.904;100.620;2023-02-17T02:11:51;101553.09;;;28.80;59.31
23223;BME280;11780;13.904;100.620;2023-02-17T02:14:22;101556.66;;;28.80;59.11
23223;BME280;11780;13.904;100.620;2023-02-17T02:19:53;101560.75;;;28.83;59.10
23223;BME280;11780;13.904;100.620;2023-02-17T02:25:17;101573.94;;;28.86;58.99
23223;BME280;11780;13.904;100.620;2023-02-17T02:33:43;101592.09;;;28.87;58.47
23223;BME280;11780;13.904;100.620;2023-02-17T02:36:37;101589.88;;;28.89;58.38
23223;BME280;11780;13.904;100.620;2023-02-17T02:39:18;101595.69;;;28.88;58.67
23223;BME280;11780;13.904;100.620;2023-02-17T02:41:53;101604.75;;;28.88;58.27
23223;BME280;11780;13.904;100.620;2023-02-17T02:44:28;101599.25;;;28.88;58.01
23223;BME280;11780;13.904;100.620;2023-02-17T02:47:00;101605.31;;;28.90;58.05
23223;BME280;11780;13.904;100.620;2023-02-17T02:49:34;101608.31;;;28.89;58.04
23223;BME280;11780;13.904;100.620;2023-02-17T02:52:11;101611.09;;;28.89;57.59
23223;BME280;11780;13.904;100.620;2023-02-17T02:55:02;101616.31;;;28.90;57.61
23223;BME280;11780;13.904;100.620;2023-02-17T03:00:30;101608.88;;;28.91;57.72
23223;BME280;11780;13.904;100.620;2023-02-17T03:06:11;101615.22;;;28.91;58.00
23223;BME280;11780;13.904;100.620;2023-02-17T03:08:52;101625.13;;;28.92;57.72
23223;BME280;11780;13.904;100.620;2023-02-17T03:11:25;101622.06;;;28.94;57.59
23223;BME280;11780;13.904;100.620;2023-02-17T03:14:15;101617.38;;;28.94;57.44
23223;BME280;11780;13.904;100.620;2023-02-17T03:16:46;101608.28;;;28.94;57.42
23223;BME280;11780;13.904;100.620;2023-02-17T03:19:19;101606.38;;;28.94;57.69
23223;BME280;11780;13.904;100.620;2023-02-17T03:22:24;101601.38;;;28.96;57.38
23223;BME280;11780;13.904;100.620;2023-02-17T03:24:57;101602.22;;;28.97;57.43
23223;BME280;11780;13.904;100.620;2023-02-17T03:27:30;101587.59;;;28.96;57.69
23223;BME280;11780;13.904;100.620;2023-02-17T03:30:00;101595.59;;;28.98;57.71
23223;BME280;11780;13.904;100.620;2023-02-17T03:32:30;101596.69;;;28.97;57.93
23223;BME280;11780;13.904;100.620;2023-02-17T13:52:56;101416.66;;;28.63;55.94
23223;BME280;11780;13.904;100.620;2023-02-17T13:55:27;101430.69;;;28.62;55.92
23223;BME280;11780;13.904;100.620;2023-02-17T13:57:58;101429.59;;;28.63;56.01
23223;BME280;11780;13.904;100.620;2023-02-17T14:00:30;101443.09;;;28.64;56.01
23223;BME280;11780;13.904;100.620;2023-02-17T14:03:10;101441.72;;;28.62;55.51
23223;BME280;11780;13.904;100.620;2023-02-17T14:05:45;101444.13;;;28.68;55.82
23223;BME280;11780;13.904;100.620;2023-02-17T14:10:49;101446.06;;;28.68;56.00
23223;BME280;11780;13.904;100.620;2023-02-17T14:13:21;101441.09;;;28.70;55.95
23223;BME280;11780;13.904;100.620;2023-02-17T14:15:57;101443.59;;;28.66;55.50
23223;BME280;11780;13.904;100.620;2023-02-17T14:21:07;101438.91;;;28.67;56.19
23223;BME280;11780;13.904;100.620;2023-02-17T14:23:56;101437.28;;;28.66;55.70
23223;BME280;11780;13.904;100.620;2023-02-17T14:26:46;101446.06;;;28.68;55.72
23223;BME280;11780;13.904;100.620;2023-02-17T14:29:17;101441.38;;;28.68;55.84
23223;BME280;11780;13.904;100.620;2023-02-17T14:31:50;101440.56;;;28.68;55.88
23223;BME280;11780;13.904;100.620;2023-02-17T14:34:28;101449.59;;;28.74;55.55
23223;BME280;11780;13.904;100.620;2023-02-17T14:37:22;101451.53;;;28.73;55.50
23223;BME280;11780;13.904;100.620;2023-02-17T14:39:53;101451.25;;;28.75;55.48
23223;BME280;11780;13.904;100.620;2023-02-17T14:42:23;101457.00;;;28.78;55.71
23223;BME280;11780;13.904;100.620;2023-02-17T14:44:53;101462.22;;;28.80;55.38
23223;BME280;11780;13.904;100.620;2023-02-17T14:47:23;101458.41;;;28.76;55.22
23223;BME280;11780;13.904;100.620;2023-02-17T14:49:53;101461.44;;;28.74;55.31
23223;BME280;11780;13.904;100.620;2023-02-17T14:52:23;101460.28;;;28.80;55.27
23223;BME280;11780;13.904;100.620;2023-02-17T14:54:53;101462.44;;;28.83;55.60
23223;BME280;11780;13.904;100.620;2023-02-17T14:57:26;101459.69;;;28.83;55.63
23223;BME280;11780;13.904;100.620;2023-02-17T14:59:57;101464.00;;;28.90;55.57
23223;BME280;11780;13.904;100.620;2023-02-17T15:02:27;101464.00;;;28.90;55.53
23223;BME280;11780;13.904;100.620;2023-02-17T15:04:58;101464.53;;;28.92;55.45
23223;BME280;11780;13.904;100.620;2023-02-17T15:07:29;101459.56;;;28.94;55.52
23223;BME280;11780;13.904;100.620;2023-02-17T15:09:59;101462.06;;;28.95;55.60
23223;BME280;11780;13.904;100.620;2023-02-17T15:12:29;101458.75;;;28.93;56.04
23223;BME280;11780;13.904;100.620;2023-02-17T15:14:59;101464.50;;;28.97;55.90
23223;BME280;11780;13.904;100.620;2023-02-17T15:17:31;101458.16;;;28.96;55.83
23223;BME280;11780;13.904;100.620;2023-02-17T15:20:04;101452.91;;;29.00;56.20
23223;BME280;11780;13.904;100.620;2023-02-17T15:22:35;101451.78;;;29.01;56.09
23223;BME280;11780;13.904;100.620;2023-02-17T15:25:18;101450.69;;;29.02;56.04
23223;BME280;11780;13.904;100.620;2023-02-17T15:27:50;101460.59;;;29.03;56.48
23223;BME280;11780;13.904;100.620;2023-02-17T15:30:21;101458.94;;;29.02;56.28
23223;BME280;11780;13.904;100.620;2023-02-17T15:32:54;101459.97;;;29.06;57.36
23223;BME280;11780;13.904;100.620;2023-02-17T15:35:26;101458.84;;;29.07;58.02
23223;BME280;11780;13.904;100.620;2023-02-17T15:37:56;101447.84;;;29.07;58.43
23223;BME280;11780;13.904;100.620;2023-02-17T15:40:27;101448.44;;;29.04;58.79
23223;BME280;11780;13.904;100.620;2023-02-17T15:42:59;101444.56;;;29.05;58.40
23223;BME280;11780;13.904;100.620;2023-02-17T15:45:32;101447.84;;;29.07;58.62
23223;BME280;11780;13.904;100.620;2023-02-17T15:48:23;101444.56;;;29.05;58.64
23223;BME280;11780;13.904;100.620;2023-02-17T15:50:55;101442.91;;;29.04;59.21
23223;BME280;11780;13.904;100.620;2023-02-17T15:53:25;101451.72;;;29.06;58.87
23223;BME280;11780;13.904;100.620;2023-02-17T15:56:01;101448.19;;;29.00;58.96
23223;BME280;11780;13.904;100.620;2023-02-17T15:58:34;101455.34;;;29.01;59.29
23223;BME280;11780;13.904;100.620;2023-02-17T16:01:05;101452.91;;;29.00;59.43
23223;BME280;11780;13.904;100.620;2023-02-17T16:03:35;101458.41;;;29.00;59.27
23223;BME280;11780;13.904;100.620;2023-02-17T16:06:06;101453.72;;;29.00;59.21
23223;BME280;11780;13.904;100.620;2023-02-17T16:08:37;101464.72;;;29.00;59.14
23223;BME280;11780;13.904;100.620;2023-02-17T16:11:13;101452.06;;;28.99;59.36
23223;BME280;11780;13.904;100.620;2023-02-17T16:13:44;101466.13;;;28.98;59.80
23223;BME280;11780;13.904;100.620;2023-02-17T16:16:18;101467.56;;;28.95;59.58
23223;BME280;11780;13.904;100.620;2023-02-17T16:18:50;101461.75;;;28.97;59.63
23223;BME280;11780;13.904;100.620;2023-02-17T16:21:23;101467.25;;;28.97;59.27
23223;BME280;11780;13.904;100.620;2023-02-17T16:23:53;101463.97;;;28.95;59.61
23223;BME280;11780;13.904;100.620;2023-02-17T16:26:31;101462.84;;;28.96;59.53
23223;BME280;11780;13.904;100.620;2023-02-17T16:29:12;101451.03;;;28.95;59.51
23223;BME280;11780;13.904;100.620;2023-02-17T16:31:47;101449.38;;;28.94;59.59
23223;BME280;11780;13.904;100.620;2023-02-17T16:34:22;101440.59;;;28.92;58.11
23223;BME280;11780;13.904;100.620;2023-02-17T16:36:55;101442.25;;;28.93;57.62
23223;BME280;11780;13.904;100.620;2023-02-17T16:39:28;101434.25;;;28.92;57.40
23223;BME280;11780;13.904;100.620;2023-02-17T16:41:59;101432.34;;;28.92;57.42
23223;BME280;11780;13.904;100.620;2023-02-17T16:44:31;101427.09;;;28.91;57.28
23223;BME280;11780;13.904;100.620;2023-02-17T16:47:01;101429.31;;;28.89;57.24
23223;BME280;11780;13.904;100.620;2023-02-17T16:49:35;101433.72;;;28.90;57.42
23223;BME280;11780;13.904;100.620;2023-02-17T16:52:23;101432.38;;;28.87;57.37
23223;BME280;11780;13.904;100.620;2023-02-17T16:54:54;101429.31;;;28.89;58.34
23223;BME280;11780;13.904;100.620;2023-02-17T16:57:24;101426.06;;;28.86;57.70
23223;BME280;11780;13.904;100.620;2023-02-17T16:59:55;101413.94;;;28.88;58.65
23223;BME280;11780;13.904;100.620;2023-02-17T17:02:25;101408.72;;;28.86;57.92
23223;BME280;11780;13.904;100.620;2023-02-17T17:04:59;101410.13;;;28.83;57.67
23223;BME280;11780;13.904;100.620;2023-02-17T17:07:30;101402.69;;;28.84;57.68
23223;BME280;11780;13.904;100.620;2023-02-17T17:10:01;101402.69;;;28.84;58.13
23223;BME280;11780;13.904;100.620;2023-02-17T17:12:43;101396.91;;;28.85;58.39
23223;BME280;11780;13.904;100.620;2023-02-17T17:15:15;101404.91;;;28.82;57.87
23223;BME280;11780;13.904;100.620;2023-02-17T17:18:05;101405.72;;;28.82;57.71
23223;BME280;11780;13.904;100.620;2023-02-17T17:20:37;101400.22;;;28.82;57.87
23223;BME280;11780;13.904;100.620;2023-02-17T17:23:11;101406.25;;;28.84;58.89
23223;BME280;11780;13.904;100.620;2023-02-17T17:25:44;101409.03;;;28.84;59.29
23223;BME280;11780;13.904;100.620;2023-02-17T17:28:16;101406.78;;;28.86;59.55
23223;BME280;11780;13.904;100.620;2023-02-17T17:30:48;101407.06;;;28.85;58.72
23223;BME280;11780;13.904;100.620;2023-02-17T17:33:19;101405.16;;;28.85;59.07
23223;BME280;11780;13.904;100.620;2023-02-17T17:35:52;101402.69;;;28.84;58.35
23223;BME280;11780;13.904;100.620;2023-02-17T17:38:22;101392.56;;;28.79;57.99
23223;BME280;11780;13.904;100.620;2023-02-17T17:40:52;101390.91;;;28.78;57.96
23223;BME280;11780;13.904;100.620;2023-02-17T17:43:25;101381.31;;;28.76;58.09
23223;BME280;11780;13.904;100.620;2023-02-17T17:45:55;101376.59;;;28.76;58.84
23223;BME280;11780;13.904;100.620;2023-02-17T17:48:28;101381.00;;;28.77;58.18
23223;BME280;11780;13.904;100.620;2023-02-17T17:50:59;101373.31;;;28.74;58.07
23223;BME280;11780;13.904;100.620;2023-02-17T17:53:30;101380.47;;;28.75;58.02
23223;BME280;11780;13.904;100.620;2023-02-17T17:56:01;101389.84;;;28.74;58.10
23223;BME280;11780;13.904;100.620;2023-02-17T17:58:31;101386.81;;;28.76;58.93
23223;BME280;11780;13.904;100.620;2023-02-17T18:01:06;101386.81;;;28.76;58.03
23223;BME280;11780;13.904;100.620;2023-02-17T18:03:36;101380.22;;;28.71;58.29
23223;BME280;11780;13.904;100.620;2023-02-17T18:06:12;101377.19;;;28.73;58.28
23223;BME280;11780;13.904;100.620;2023-02-17T18:08:45;101365.34;;;28.72;58.25
23223;BME280;11780;13.904;100.620;2023-02-17T18:11:18;101367.28;;;28.72;58.35
23223;BME280;11780;13.904;100.620;2023-02-17T18:13:52;101359.56;;;28.74;57.97
23223;BME280;11780;13.904;100.620;2023-02-17T18:16:25;101352.13;;;28.75;58.53
23223;BME280;11780;13.904;100.620;2023-02-17T18:18:57;101358.97;;;28.77;58.79
23223;BME280;11780;13.904;100.620;2023-02-17T18:21:28;101368.88;;;28.78;58.99
23223;BME280;11780;13.904;100.620;2023-02-17T18:23:59;101356.00;;;28.74;58.20
23223;BME280;11780;13.904;100.620;2023-02-17T18:26:28;101359.03;;;28.72;58.38
23223;BME280;11780;13.904;100.620;2023-02-17T18:28:59;101363.69;;;28.77;58.98
23223;BME280;11780;13.904;100.620;2023-02-17T18:31:30;101364.25;;;28.74;58.46
23223;BME280;11780;13.904;100.620;2023-02-17T18:34:00;101353.00;;;28.70;57.88
23223;BME280;11780;13.904;100.620;2023-02-17T18:36:31;101356.28;;;28.72;57.79
23223;BME280;11780;13.904;100.620;2023-02-17T18:39:04;101353.25;;;28.74;58.80
23223;BME280;11780;13.904;100.620;2023-02-17T18:41:34;101351.03;;;28.70;57.82
23223;BME280;11780;13.904;100.620;2023-02-17T18:44:04;101356.00;;;28.74;58.09
23223;BME280;11780;13.904;100.620;2023-02-17T18:46:35;101345.22;;;28.77;58.42
23223;BME280;11780;13.904;100.620;2023-02-17T18:49:07;101337.00;;;28.72;57.42
23223;BME280;11780;13.904;100.620;2023-02-17T18:51:37;101332.88;;;28.75;58.16
23223;BME280;11780;13.904;100.620;2023-02-17T18:54:08;101330.38;;;28.73;57.59
23223;BME280;11780;13.904;100.620;2023-02-17T18:56:39;101329.28;;;28.74;58.12
23223;BME280;11780;13.904;100.620;2023-02-17T18:59:12;101328.69;;;28.77;58.10
23223;BME280;11780;13.904;100.620;2023-02-17T19:01:42;101329.28;;;28.74;57.74
23223;BME280;11780;13.904;100.620;2023-02-17T19:04:13;101333.97;;;28.74;57.36
23223;BME280;11780;13.904;100.620;2023-02-17T19:06:44;101334.25;;;28.72;56.97
23223;BME280;11780;13.904;100.620;2023-02-17T19:09:13;101330.09;;;28.75;57.85
23223;BME280;11780;13.904;100.620;2023-02-17T19:11:44;101325.16;;;28.71;57.08
23223;BME280;11780;13.904;100.620;2023-02-17T19:14:15;101334.78;;;28.74;57.88
23223;BME280;11780;13.904;100.620;2023-02-17T19:16:47;101337.00;;;28.72;57.34
23223;BME280;11780;13.904;100.620;2023-02-17T19:19:34;101331.50;;;28.72;56.92
23223;BME280;11780;13.904;100.620;2023-02-17T19:22:04;101323.78;;;28.74;56.75
23223;BME280;11780;13.904;100.620;2023-02-17T19:24:38;101334.25;;;28.72;56.47
23223;BME280;11780;13.904;100.620;2023-02-17T19:27:09;101331.50;;;28.72;57.21
23223;BME280;11780;13.904;100.620;2023-02-17T19:29:40;101332.63;;;28.71;56.42
23223;BME280;11780;13.904;100.620;2023-02-17T19:32:10;101323.00;;;28.68;56.03
23223;BME280;11780;13.904;100.620;2023-02-17T19:34:40;101322.19;;;28.68;55.97
23223;BME280;11780;13.904;100.620;2023-02-17T19:37:10;101327.69;;;28.68;55.78
23223;BME280;11780;13.904;100.620;2023-02-17T19:39:40;101330.44;;;28.68;55.89
23223;BME280;11780;13.904;100.620;2023-02-17T19:42:10;101321.66;;;28.66;55.75
23223;BME280;11780;13.904;100.620;2023-02-17T19:44:40;101318.91;;;28.66;55.59
23223;BME280;11780;13.904;100.620;2023-02-17T19:47:11;101320.53;;;28.67;55.74
23223;BME280;11780;13.904;100.620;2023-02-17T19:49:44;101317.25;;;28.65;55.81
23223;BME280;11780;13.904;100.620;2023-02-17T19:52:36;101331.81;;;28.65;55.75
23223;BME280;11780;13.904;100.620;2023-02-17T19:55:06;101324.72;;;28.64;55.74
23223;BME280;11780;13.904;100.620;2023-02-17T19:57:40;101318.38;;;28.64;55.81
23223;BME280;11780;13.904;100.620;2023-02-17T20:00:10;101320.81;;;28.65;55.88
23223;BME280;11780;13.904;100.620;2023-02-17T20:02:40;101323.06;;;28.63;56.20
23223;BME280;11780;13.904;100.620;2023-02-17T20:05:10;101323.88;;;28.64;56.47
23223;BME280;11780;13.904;100.620;2023-02-17T20:07:42;101324.63;;;28.69;56.76
23223;BME280;11780;13.904;100.620;2023-02-17T20:10:12;101324.41;;;28.66;56.77
23223;BME280;11780;13.904;100.620;2023-02-17T20:12:43;101336.75;;;28.68;56.89
23223;BME280;11780;13.904;100.620;2023-02-17T20:15:13;101325.22;;;28.66;57.16
23223;BME280;11780;13.904;100.620;2023-02-17T20:17:44;101323.25;;;28.72;57.10
23223;BME280;11780;13.904;100.620;2023-02-17T20:20:14;101332.31;;;28.72;57.02
23223;BME280;11780;13.904;100.620;2023-02-17T20:22:45;101310.06;;;28.69;57.15
23223;BME280;11780;13.904;100.620;2023-02-17T20:25:16;101302.91;;;28.68;56.92
23223;BME280;11780;13.904;100.620;2023-02-17T20:27:47;101307.00;;;28.70;56.79
23223;BME280;11780;13.904;100.620;2023-02-17T20:30:17;101298.22;;;28.68;56.79
23223;BME280;11780;13.904;100.620;2023-02-17T20:32:47;101303.44;;;28.70;56.71
23223;BME280;11780;13.904;100.620;2023-02-17T20:35:19;101293.81;;;28.67;56.78
23223;BME280;11780;13.904;100.620;2023-02-17T20:37:49;101290.78;;;28.69;56.70
23223;BME280;11780;13.904;100.620;2023-02-17T20:40:19;101291.38;;;28.66;56.43
23223;BME280;11780;13.904;100.620;2023-02-17T20:42:50;101283.13;;;28.66;56.61
23223;BME280;11780;13.904;100.620;2023-02-17T20:45:20;101282.28;;;28.65;56.46
23223;BME280;11780;13.904;100.620;2023-02-17T20:47:50;101280.13;;;28.62;56.55
23223;BME280;11780;13.904;100.620;2023-02-17T20:50:20;101272.69;;;28.63;56.70
23223;BME280;11780;13.904;100.620;2023-02-17T20:52:51;101281.47;;;28.65;56.65
23223;BME280;11780;13.904;100.620;2023-02-17T20:55:20;101272.09;;;28.66;56.49
23223;BME280;11780;13.904;100.620;2023-02-17T20:57:54;101270.78;;;28.63;56.47
23223;BME280;11780;13.904;100.620;2023-02-17T21:00:25;101262.72;;;28.67;56.10
23223;BME280;11780;13.904;100.620;2023-02-17T21:02:55;101250.38;;;28.64;56.15
23223;BME280;11780;13.904;100.620;2023-02-17T21:05:26;101250.09;;;28.66;56.16
23223;BME280;11780;13.904;100.620;2023-02-17T21:07:56;101246.00;;;28.63;56.28
23223;BME280;11780;13.904;100.620;2023-02-17T21:10:29;101239.38;;;28.64;56.09
23223;BME280;11780;13.904;100.620;2023-02-17T21:12:59;101239.66;;;28.63;56.44
23223;BME280;11780;13.904;100.620;2023-02-17T21:15:30;101241.31;;;28.64;56.34
23223;BME280;11780;13.904;100.620;2023-02-17T21:18:00;101237.22;;;28.61;56.17
23223;BME280;11780;13.904;100.620;2023-02-17T21:20:30;101240.50;;;28.63;56.33
23223;BME280;11780;13.904;100.620;2023-02-17T21:23:00;101231.13;;;28.64;56.42
23223;BME280;11780;13.904;100.620;2023-02-17T21:25:30;101236.63;;;28.64;56.36
23223;BME280;11780;13.904;100.620;2023-02-17T21:28:00;101223.72;;;28.60;56.27
23223;BME280;11780;13.904;100.620;2023-02-17T21:30:30;101228.66;;;28.63;56.16
23223;BME280;11780;13.904;100.620;2023-02-17T21:33:00;101225.91;;;28.63;56.32
23223;BME280;11780;13.904;100.620;2023-02-17T21:35:29;101229.69;;;28.67;56.41
23223;BME280;11780;13.904;100.620;2023-02-17T21:38:01;101224.47;;;28.65;56.38
23223;BME280;11780;13.904;100.620;2023-02-17T21:40:31;101226.78;;;28.58;56.47
23223;BME280;11780;13.904;100.620;2023-02-17T21:43:01;101233.94;;;28.59;56.39
23223;BME280;11780;13.904;100.620;2023-02-17T21:45:49;101245.53;;;28.56;56.51
23223;BME280;11780;13.904;100.620;2023-02-17T21:48:20;101253.47;;;28.57;56.27
23223;BME280;11780;13.904;100.620;2023-02-17T21:50:50;101253.56;;;28.52;56.48
23223;BME280;11780;13.904;100.620;2023-02-17T21:53:20;101255.13;;;28.59;56.59
23223;BME280;11780;13.904;100.620;2023-02-17T21:55:50;101245.53;;;28.56;56.46
23223;BME280;11780;13.904;100.620;2023-02-17T21:58:20;101256.53;;;28.56;56.57
23223;BME280;11780;13.904;100.620;2023-02-17T22:00:50;101250.22;;;28.55;56.63
23223;BME280;11780;13.904;100.620;2023-02-17T22:03:21;101246.63;;;28.55;56.76
23223;BME280;11780;13.904;100.620;2023-02-17T22:05:51;101241.97;;;28.55;56.73
23223;BME280;11780;13.904;100.620;2023-02-17T22:08:21;101235.84;;;28.59;56.74
23223;BME280;11780;13.904;100.620;2023-02-17T22:10:52;101236.38;;;28.61;56.54
23223;BME280;11780;13.904;100.620;2023-02-17T22:13:28;101228.97;;;28.61;56.53
23223;BME280;11780;13.904;100.620;2023-02-17T22:16:22;101233.34;;;28.62;56.75
23223;BME280;11780;13.904;100.620;2023-02-17T22:18:52;101233.34;;;28.62;56.59
23223;BME280;11780;13.904;100.620;2023-02-17T22:21:29;101239.72;;;28.57;56.84
23223;BME280;11780;13.904;100.620;2023-02-17T22:24:00;101250.22;;;28.55;56.79
23223;BME280;11780;13.904;100.620;2023-02-17T22:26:30;101251.88;;;28.56;56.76
23223;BME280;11780;13.904;100.620;2023-02-17T22:29:04;101268.38;;;28.56;56.79
23223;BME280;11780;13.904;100.620;2023-02-17T22:31:34;101268.13;;;28.53;56.96
23223;BME280;11780;13.904;100.620;2023-02-17T22:34:07;101258.97;;;28.57;56.91
23223;BME280;11780;13.904;100.620;2023-02-17T22:36:38;101265.38;;;28.53;57.23
23223;BME280;11780;13.904;100.620;2023-02-17T22:39:21;101269.78;;;28.54;57.12
23223;BME280;11780;13.904;100.620;2023-02-17T22:41:52;101269.78;;;28.54;57.33
23223;BME280;11780;13.904;100.620;2023-02-17T22:44:22;101268.66;;;28.55;57.30
23223;BME280;11780;13.904;100.620;2023-02-17T22:46:52;101278.03;;;28.54;57.24
23223;BME280;11780;13.904;100.620;2023-02-17T22:49:27;101269.19;;;28.57;57.43
23223;BME280;11780;13.904;100.620;2023-02-17T22:51:57;101281.00;;;28.57;57.74
23223;BME280;11780;13.904;100.620;2023-02-17T22:54:29;101278.88;;;28.54;57.56
23223;BME280;11780;13.904;100.620;2023-02-17T22:56:59;101281.63;;;28.54;57.64
23223;BME280;11780;13.904;100.620;2023-02-17T22:59:30;101294.25;;;28.55;57.56
23223;BME280;11780;13.904;100.620;2023-02-17T23:01:59;101291.22;;;28.57;57.70
23223;BME280;11780;13.904;100.620;2023-02-17T23:04:29;101297.50;;;28.57;57.70
23223;BME280;11780;13.904;100.620;2023-02-17T23:06:59;101296.66;;;28.62;57.73
23223;BME280;11780;13.904;100.620;2023-02-17T23:09:30;101304.91;;;28.62;58.43
23223;BME280;11780;13.904;100.620;2023-02-17T23:11:59;101306.03;;;28.61;58.09
23223;BME280;11780;13.904;100.620;2023-02-17T23:14:35;101307.13;;;28.60;58.05
23223;BME280;11780;13.904;100.620;2023-02-17T23:17:08;101299.16;;;28.59;58.13
23223;BME280;11780;13.904;100.620;2023-02-17T23:19:40;101312.91;;;28.59;58.25
23223;BME280;11780;13.904;100.620;2023-02-17T23:22:14;101319.53;;;28.57;58.16
23223;BME280;11780;13.904;100.620;2023-02-17T23:24:46;101322.81;;;28.60;58.43
23223;BME280;11780;13.904;100.620;2023-02-17T23:27:16;101333.03;;;28.59;58.24
23223;BME280;11780;13.904;100.620;2023-02-17T23:29:46;101327.78;;;28.57;58.18
23223;BME280;11780;13.904;100.620;2023-02-17T23:32:16;101335.25;;;28.57;58.67
23223;BME280;11780;13.904;100.620;2023-02-17T23:34:47;101343.16;;;28.64;58.11
23223;BME280;11780;13.904;100.620;2023-02-17T23:37:17;101345.44;;;28.56;58.11
23223;BME280;11780;13.904;100.620;2023-02-17T23:39:47;101352.28;;;28.59;58.11
23223;BME280;11780;13.904;100.620;2023-02-17T23:42:17;101353.44;;;28.53;58.14